Time;durP1;ratioP1;P1;durP2;ratioP2;P2;SDS_P1;SDS_P2;PMS_P1;PMS_P2;Temp;Humidity;BMP_temperature;BMP_pressure;BME280_temperature;BME280_humidity;BME280_pressure;Samples;Min_cycle;Max_cycle;Signal;HPM_P1;HPM_P2
2022/03/06 00:01:39;;;;;;;37.55;27.77;;;;;;;-1.68;69.01;95538.19;6299991;22;20011;-60
2022/03/06 00:04:04;;;;;;;50.60;35.30;;;;;;;-1.68;68.16;95527.00;6300400;22;19999;-60
2022/03/06 00:06:29;;;;;;;44.92;32.22;;;;;;;-1.75;68.84;95536.81;6300124;22;20007;-60
2022/03/06 00:08:55;;;;;;;48.30;34.40;;;;;;;-1.79;68.54;95530.94;6300067;22;20084;-64
2022/03/06 00:11:20;;;;;;;46.58;32.30;;;;;;;-1.79;70.99;95536.09;6300036;22;19999;-61
2022/03/06 00:13:46;;;;;;;41.70;28.80;;;;;;;-1.86;69.80;95529.56;6299695;22;20008;-60
2022/03/06 00:16:11;;;;;;;37.03;28.88;;;;;;;-1.83;68.99;95544.91;6300146;22;20498;-60
2022/03/06 00:18:37;;;;;;;35.72;27.60;;;;;;;-1.79;68.98;95536.09;6300110;22;20003;-60
2022/03/06 00:21:03;;;;;;;34.55;25.95;;;;;;;-1.78;67.76;95544.66;6299993;22;20008;-60
2022/03/06 00:23:29;;;;;;;31.92;24.52;;;;;;;-1.81;68.72;95543.09;6299751;22;20007;-60
2022/03/06 00:25:54;;;;;;;32.47;24.38;;;;;;;-1.89;69.68;95551.16;6299664;22;20007;-60
2022/03/06 00:28:19;;;;;;;46.00;28.75;;;;;;;-1.90;68.59;95546.06;6299759;22;20010;-60
2022/03/06 00:30:46;;;;;;;44.88;30.85;;;;;;;-1.98;69.16;95549.03;6273986;22;20007;-58
2022/03/06 00:33:12;;;;;;;54.72;35.70;;;;;;;-2.00;69.33;95548.22;6274114;22;20007;-58
2022/03/06 00:35:37;;;;;;;47.63;31.80;;;;;;;-1.99;68.48;95549.06;6301340;22;20078;-58
2022/03/06 00:38:03;;;;;;;33.58;24.85;;;;;;;-1.98;68.78;95545.59;6301533;22;20011;-58
2022/03/06 00:40:29;;;;;;;31.27;22.33;;;;;;;-2.03;68.91;95549.22;6273518;22;20359;-58
2022/03/06 00:42:54;;;;;;;33.53;23.90;;;;;;;-2.03;68.98;95549.22;6301350;22;20427;-58
2022/03/06 00:45:20;;;;;;;26.00;21.05;;;;;;;-2.01;67.78;95559.44;6301182;22;19995;-60
2022/03/06 00:47:45;;;;;;;32.13;20.63;;;;;;;-2.03;68.21;95550.94;6301094;22;20007;-60
2022/03/06 00:50:11;;;;;;;30.85;21.70;;;;;;;-2.02;67.19;95556.06;6301116;22;19995;-60
2022/03/06 00:52:40;;;;;;;29.85;21.42;;;;;;;-1.96;67.11;95564.41;6301472;22;20001;-60
2022/03/06 00:55:06;;;;;;;28.92;19.77;;;;;;;-2.04;67.68;95565.59;6301097;22;20442;-60
2022/03/06 00:57:31;;;;;;;27.75;20.63;;;;;;;-2.05;67.87;95565.66;6300839;22;19999;-59
2022/03/06 00:59:57;;;;;;;24.73;19.23;;;;;;;-2.09;69.18;95566.69;6301126;22;20000;-60
2022/03/06 01:02:22;;;;;;;23.75;18.90;;;;;;;-2.14;69.03;95573.81;6300998;22;20018;-60
2022/03/06 01:04:48;;;;;;;24.75;18.67;;;;;;;-2.18;68.60;95566.22;6300764;22;20023;-60
2022/03/06 01:07:14;;;;;;;26.27;18.60;;;;;;;-2.19;68.37;95569.69;6301018;22;20324;-60
2022/03/06 01:09:40;;;;;;;25.83;18.83;;;;;;;-2.21;69.81;95570.66;6300950;22;20094;-60
2022/03/06 01:12:05;;;;;;;23.25;19.20;;;;;;;-2.23;69.55;95575.88;6300204;22;20055;-60
2022/03/06 01:14:31;;;;;;;34.47;23.38;;;;;;;-2.27;69.80;95573.50;6300245;22;20003;-60
2022/03/06 01:16:56;;;;;;;33.70;24.65;;;;;;;-2.34;70.55;95576.34;6300745;22;20467;-60
2022/03/06 01:19:21;;;;;;;29.48;20.10;;;;;;;-2.41;70.71;95574.13;6300168;22;20003;-59
2022/03/06 01:21:47;;;;;;;24.05;18.65;;;;;;;-2.48;70.28;95576.09;6300761;22;20446;-60
2022/03/06 01:24:12;;;;;;;19.73;15.27;;;;;;;-2.48;69.21;95573.53;6300392;22;20059;-60
2022/03/06 01:26:38;;;;;;;21.88;16.30;;;;;;;-2.45;69.18;95569.06;6300378;22;20003;-60
2022/03/06 01:29:04;;;;;;;24.08;17.98;;;;;;;-2.44;70.16;95567.34;6299490;22;20010;-60
2022/03/06 01:31:29;;;;;;;22.20;15.77;;;;;;;-2.41;70.16;95567.19;6247505;22;20527;-60
2022/03/06 01:33:55;;;;;;;18.10;14.23;;;;;;;-2.44;69.41;95569.91;6300466;22;20461;-60
2022/03/06 01:36:20;;;;;;;23.35;15.85;;;;;;;-2.45;69.18;95563.09;6272881;22;20007;-60
2022/03/06 01:38:45;;;;;;;27.95;18.77;;;;;;;-2.43;68.90;95571.59;6300476;22;20003;-60
2022/03/06 01:41:11;;;;;;;35.08;23.60;;;;;;;-2.41;69.63;95563.81;6299670;22;20007;-60
2022/03/06 01:43:36;;;;;;;32.60;21.55;;;;;;;-2.43;69.64;95563.84;6300621;22;20007;-59
2022/03/06 01:46:02;;;;;;;28.33;20.48;;;;;;;-2.44;71.65;95559.59;6300534;22;20457;-60
2022/03/06 01:48:27;;;;;;;28.90;20.27;;;;;;;-2.46;71.20;95561.41;6300299;22;20098;-60
2022/03/06 01:50:52;;;;;;;28.98;21.20;;;;;;;-2.56;70.67;95565.25;6300504;22;20010;-59
2022/03/06 01:53:18;;;;;;;31.88;22.75;;;;;;;-2.64;72.34;95560.47;6300319;22;20000;-60
2022/03/06 01:55:43;;;;;;;29.67;21.27;;;;;;;-2.68;72.43;95561.47;6300141;22;20081;-60
2022/03/06 01:58:11;;;;;;;26.83;20.42;;;;;;;-2.69;73.18;95565.78;6300501;22;19999;-60
2022/03/06 02:00:40;;;;;;;27.75;19.48;;;;;;;-2.64;72.25;95569.00;6299398;22;20351;-60
2022/03/06 02:03:06;;;;;;;24.48;19.05;;;;;;;-2.53;71.11;95565.16;6300414;22;20022;-59
2022/03/06 02:05:32;;;;;;;22.63;18.00;;;;;;;-2.49;72.25;95564.94;6272922;22;20011;-59
2022/03/06 02:07:58;;;;;;;26.98;18.58;;;;;;;-2.52;72.26;95566.84;6300695;22;20003;-60
2022/03/06 02:10:23;;;;;;;21.50;16.85;;;;;;;-2.57;72.08;95561.00;6299875;22;20042;-59
2022/03/06 02:12:49;;;;;;;21.85;17.00;;;;;;;-2.59;72.11;95563.66;6300524;22;20003;-60
2022/03/06 02:15:16;;;;;;;21.83;17.10;;;;;;;-2.59;73.55;95566.25;6300450;22;20279;-59
2022/03/06 02:17:42;;;;;;;21.30;16.42;;;;;;;-2.62;72.90;95559.47;6273105;22;20042;-60
2022/03/06 02:20:14;;;;;;;20.98;15.88;;;;;;;-2.62;72.85;95558.66;6300234;22;19995;-59
2022/03/06 02:22:44;;;;;;;23.92;17.80;;;;;;;-2.66;72.91;95560.50;6300384;22;20007;-59
2022/03/06 02:25:18;;;;;;;23.85;16.77;;;;;;;-2.67;72.75;95569.16;6300268;22;20070;-59
2022/03/06 02:27:44;;;;;;;20.88;16.73;;;;;;;-2.72;73.46;95560.78;6300359;22;20486;-60
2022/03/06 02:30:13;;;;;;;22.75;16.85;;;;;;;-2.73;73.65;95556.53;6300418;22;20078;-59
2022/03/06 02:32:39;;;;;;;21.67;16.02;;;;;;;-2.76;73.61;95560.06;6300265;22;20078;-60
2022/03/06 02:35:06;;;;;;;18.02;14.93;;;;;;;-2.83;73.39;95563.78;6300545;22;20377;-60
2022/03/06 02:37:32;;;;;;;20.60;15.93;;;;;;;-2.84;73.48;95563.84;6299916;22;20027;-60
2022/03/06 02:40:00;;;;;;;20.02;14.85;;;;;;;-2.88;73.01;95558.81;6300553;22;20312;-59
2022/03/06 02:42:28;;;;;;;20.65;14.68;;;;;;;-2.81;72.79;95559.41;6299867;22;20035;-60
2022/03/06 02:44:54;;;;;;;17.77;14.38;;;;;;;-2.84;72.88;95553.53;6300024;22;20000;-59
2022/03/06 02:47:20;;;;;;;17.90;14.30;;;;;;;-2.87;73.32;95557.09;6300251;22;20343;-60
2022/03/06 02:49:46;;;;;;;18.58;15.30;;;;;;;-2.86;73.78;95552.78;6300065;22;19999;-59
2022/03/06 02:52:11;;;;;;;17.10;14.18;;;;;;;-2.84;73.07;95559.53;6300252;22;20007;-60
2022/03/06 02:54:37;;;;;;;17.17;14.43;;;;;;;-2.84;72.89;95548.38;6299995;22;20031;-60
2022/03/06 02:57:07;;;;;;;18.75;15.88;;;;;;;-2.90;73.18;95546.91;6300066;22;20007;-60
2022/03/06 02:59:32;;;;;;;17.23;13.60;;;;;;;-2.86;72.25;95555.34;6299869;22;20007;-60
2022/03/06 03:01:58;;;;;;;16.23;13.65;;;;;;;-2.86;71.98;95542.47;6272706;22;20066;-59
2022/03/06 03:04:23;;;;;;;19.40;14.13;;;;;;;-2.86;71.76;95547.63;6299959;22;20000;-60
2022/03/06 03:06:50;;;;;;;15.48;13.35;;;;;;;-2.86;71.15;95539.88;6300127;22;20038;-60
2022/03/06 03:09:19;;;;;;;14.05;12.52;;;;;;;-2.92;71.41;95548.69;6299395;22;20022;-60
2022/03/06 03:11:46;;;;;;;17.90;13.52;;;;;;;-2.92;72.00;95546.97;6300046;22;20003;-60
2022/03/06 03:14:13;;;;;;;15.25;12.32;;;;;;;-2.95;72.14;95549.69;6300573;22;20120;-59
2022/03/06 03:16:39;;;;;;;15.35;13.63;;;;;;;-3.00;72.18;95548.19;6299925;22;20003;-60
2022/03/06 03:19:04;;;;;;;17.40;12.85;;;;;;;-3.02;72.07;95548.25;6300155;22;20007;-60
2022/03/06 03:21:29;;;;;;;18.75;14.25;;;;;;;-3.02;72.21;95550.81;6299812;22;20431;-60
2022/03/06 03:23:55;;;;;;;19.38;14.18;;;;;;;-3.04;73.11;95550.91;6300065;22;20018;-59
2022/03/06 03:26:20;;;;;;;20.52;14.52;;;;;;;-2.98;74.00;95554.97;6299841;22;20023;-59
2022/03/06 03:28:45;;;;;;;19.90;14.32;;;;;;;-2.99;73.15;95555.84;6299805;22;20347;-59
2022/03/06 03:31:11;;;;;;;23.67;14.90;;;;;;;-3.09;73.74;95557.97;6299993;22;19995;-59
2022/03/06 03:33:36;;;;;;;21.60;13.85;;;;;;;-3.10;72.65;95552.88;6299409;22;20003;-59
2022/03/06 03:36:02;;;;;;;17.73;14.27;;;;;;;-3.12;72.78;95547.78;6300022;22;20031;-60
2022/03/06 03:38:28;;;;;;;18.48;14.20;;;;;;;-3.14;72.98;95553.91;6299760;22;20004;-60
2022/03/06 03:40:53;;;;;;;22.60;14.35;;;;;;;-3.12;71.92;95554.69;6299847;22;20011;-60
2022/03/06 03:43:19;;;;;;;18.00;14.52;;;;;;;-3.14;73.40;95554.72;6300007;22;20055;-60
2022/03/06 03:45:44;;;;;;;20.20;14.93;;;;;;;-3.15;72.60;95559.97;6299643;22;20343;-60
2022/03/06 03:48:09;;;;;;;21.08;14.38;;;;;;;-3.25;74.44;95557.72;6300015;22;19999;-60
2022/03/06 03:50:35;;;;;;;23.25;13.80;;;;;;;-3.28;72.89;95562.19;6299428;22;20461;-60
2022/03/06 03:53:00;;;;;;;20.95;14.10;;;;;;;-3.32;73.95;95564.03;6300167;22;20083;-60
2022/03/06 03:55:26;;;;;;;19.42;14.35;;;;;;;-3.30;73.25;95567.38;6299484;22;20000;-59
2022/03/06 03:57:51;;;;;;;23.55;13.68;;;;;;;-3.32;72.86;95576.91;6299913;22;20007;-60
2022/03/06 04:00:16;;;;;;;20.25;14.20;;;;;;;-3.35;74.18;95577.03;6299217;22;20010;-59
2022/03/06 04:02:42;;;;;;;19.65;14.60;;;;;;;-3.32;73.17;95576.91;6299402;22;20083;-60
2022/03/06 04:05:08;;;;;;;18.35;13.73;;;;;;;-3.35;74.66;95580.44;6300373;22;20037;-59
2022/03/06 04:07:33;;;;;;;18.67;13.25;;;;;;;-3.41;73.56;95582.44;6300582;22;20010;-59
2022/03/06 04:09:58;;;;;;;18.20;13.73;;;;;;;-3.46;75.19;95591.13;6300727;22;20019;-60
2022/03/06 04:12:24;;;;;;;19.98;13.20;;;;;;;-3.46;74.77;95588.56;6300586;22;20013;-61
2022/03/06 04:14:50;;;;;;;18.42;13.93;;;;;;;-3.47;73.62;95586.06;6301229;22;20007;-59
2022/03/06 04:17:15;;;;;;;18.08;13.18;;;;;;;-3.50;74.28;95591.34;6300604;22;20005;-60
2022/03/06 04:19:40;;;;;;;20.20;13.02;;;;;;;-3.57;74.64;95585.59;6300466;22;20009;-59
2022/03/06 04:22:06;;;;;;;19.70;13.85;;;;;;;-3.59;73.80;95584.81;6300670;22;20373;-59
2022/03/06 04:24:31;;;;;;;14.05;12.57;;;;;;;-3.55;73.14;95590.66;6300573;22;20031;-60
2022/03/06 04:26:56;;;;;;;20.40;13.85;;;;;;;-3.59;75.81;95589.94;6300740;22;20431;-60
2022/03/06 04:29:22;;;;;;;19.23;14.10;;;;;;;-3.60;75.17;95578.81;6300641;22;20007;-60
2022/03/06 04:31:47;;;;;;;17.42;13.57;;;;;;;-3.58;73.92;95585.63;6300692;22;20003;-60
2022/03/06 04:34:13;;;;;;;17.83;14.45;;;;;;;-3.58;73.65;95585.63;6300964;22;20334;-60
2022/03/06 04:36:38;;;;;;;15.48;13.63;;;;;;;-3.60;74.01;95585.69;6300602;22;20004;-60
2022/03/06 04:39:05;;;;;;;15.60;12.88;;;;;;;-3.64;74.28;95586.72;6300519;22;20007;-60
2022/03/06 04:41:31;;;;;;;16.67;14.60;;;;;;;-3.68;75.09;95588.56;6300415;22;20022;-60
2022/03/06 04:43:57;;;;;;;16.73;12.98;;;;;;;-3.69;74.07;95593.75;6300851;22;20003;-60
2022/03/06 04:46:22;;;;;;;14.27;12.45;;;;;;;-3.75;75.68;95593.09;6300265;22;20020;-60
2022/03/06 04:48:48;;;;;;;14.15;12.32;;;;;;;-3.75;75.51;95594.84;6300500;22;20018;-60
2022/03/06 04:51:13;;;;;;;17.02;13.02;;;;;;;-3.74;74.55;95587.06;6300609;22;20003;-60
2022/03/06 04:53:40;;;;;;;20.02;14.52;;;;;;;-3.75;75.05;95595.66;6300542;22;20007;-60
2022/03/06 04:56:05;;;;;;;25.50;16.42;;;;;;;-3.77;75.89;95597.47;6273446;22;20011;-60
2022/03/06 04:58:31;;;;;;;23.05;16.45;;;;;;;-3.80;76.09;95592.44;6300487;22;20078;-59
2022/03/06 05:00:56;;;;;;;23.33;17.25;;;;;;;-3.81;75.24;95600.19;6300762;22;20339;-60
2022/03/06 05:03:22;;;;;;;20.67;15.52;;;;;;;-3.84;77.15;95590.88;6300477;22;20003;-60
2022/03/06 05:05:48;;;;;;;21.05;17.88;;;;;;;-3.90;76.70;95591.94;6300388;22;20430;-59
2022/03/06 05:08:14;;;;;;;19.30;16.95;;;;;;;-3.90;75.36;95591.94;6300192;22;20008;-60
2022/03/06 05:10:39;;;;;;;23.10;17.50;;;;;;;-3.94;76.60;95589.53;6298770;22;20022;-60
2022/03/06 05:13:05;;;;;;;24.42;18.02;;;;;;;-3.93;76.19;95586.06;6299035;22;20059;-60
2022/03/06 05:15:30;;;;;;;29.13;19.15;;;;;;;-3.88;75.78;95591.84;6299927;22;20462;-60
2022/03/06 05:17:56;;;;;;;28.90;19.33;;;;;;;-3.91;75.35;95587.69;6300511;22;20052;-59
2022/03/06 05:20:22;;;;;;;25.33;18.60;;;;;;;-3.92;76.19;95592.88;6300364;22;19999;-59
2022/03/06 05:22:48;;;;;;;29.27;17.65;;;;;;;-3.98;76.86;95591.38;6300327;22;20082;-60
2022/03/06 05:25:14;;;;;;;23.20;18.65;;;;;;;-4.05;76.21;95595.91;6300613;22;20034;-60
2022/03/06 05:27:39;;;;;;;23.52;18.35;;;;;;;-4.01;76.13;95600.94;6300578;22;20018;-60
2022/03/06 05:30:07;;;;;;;27.08;19.38;;;;;;;-4.01;76.16;95606.91;6273233;22;20004;-60
2022/03/06 05:32:32;;;;;;;22.85;17.80;;;;;;;-3.99;77.46;95604.28;6300324;22;20029;-60
2022/03/06 05:34:58;;;;;;;22.85;17.95;;;;;;;-3.97;76.44;95605.06;6300643;22;20486;-59
2022/03/06 05:37:23;;;;;;;28.23;18.08;;;;;;;-3.97;76.10;95605.06;6300110;22;20008;-60
2022/03/06 05:39:48;;;;;;;19.02;15.68;;;;;;;-3.96;75.41;95611.88;6272950;22;20010;-60
2022/03/06 05:42:14;;;;;;;20.83;16.95;;;;;;;-3.94;76.50;95604.94;6300373;22;20010;-60
2022/03/06 05:44:41;;;;;;;20.25;16.17;;;;;;;-3.94;77.00;95594.66;6300495;22;20004;-60
2022/03/06 05:47:06;;;;;;;19.42;15.73;;;;;;;-3.98;75.78;95598.25;6300167;22;19999;-60
2022/03/06 05:49:31;;;;;;;17.27;14.88;;;;;;;-4.00;75.96;95595.72;6300381;22;20344;-60
2022/03/06 05:51:57;;;;;;;18.65;15.75;;;;;;;-3.98;76.85;95599.09;6300907;22;20339;-60
2022/03/06 05:54:22;;;;;;;18.63;15.77;;;;;;;-3.94;77.31;95585.22;6300366;22;20102;-60
2022/03/06 05:56:48;;;;;;;17.00;14.48;;;;;;;-3.98;77.07;95588.81;6300315;22;19999;-60
2022/03/06 05:59:13;;;;;;;19.13;14.57;;;;;;;-3.98;76.41;95585.38;6300558;22;20609;-60
2022/03/06 06:01:38;;;;;;;19.50;15.20;;;;;;;-3.92;77.41;95585.16;6300156;22;20015;-60
2022/03/06 06:04:04;;;;;;;19.13;15.07;;;;;;;-3.98;78.48;95577.66;6300179;22;20035;-60
2022/03/06 06:06:30;;;;;;;17.85;14.65;;;;;;;-3.97;77.15;95581.91;6300155;22;20029;-60
2022/03/06 06:08:56;;;;;;;17.55;14.32;;;;;;;-4.00;77.66;95580.28;6300503;22;20047;-62
2022/03/06 06:11:22;;;;;;;16.50;13.30;;;;;;;-4.04;77.60;95579.56;6300679;22;20007;-59
2022/03/06 06:13:47;;;;;;;16.23;14.50;;;;;;;-4.05;78.42;95575.34;6300408;22;19999;-59
2022/03/06 06:16:13;;;;;;;18.15;14.82;;;;;;;-4.02;78.91;95582.06;6300600;22;20011;-60
2022/03/06 06:18:40;;;;;;;20.35;15.70;;;;;;;-4.01;78.75;95585.50;6300217;22;20010;-60
2022/03/06 06:21:06;;;;;;;17.73;14.73;;;;;;;-4.04;79.60;95591.59;6299960;22;20336;-59
2022/03/06 06:23:31;;;;;;;18.10;14.55;;;;;;;-4.04;77.63;95589.00;6300202;22;20007;-59
2022/03/06 06:25:57;;;;;;;18.73;16.13;;;;;;;-4.00;78.34;95600.88;6299478;22;20388;-58
2022/03/06 06:28:22;;;;;;;18.75;14.98;;;;;;;-4.04;78.53;95600.16;6299743;22;20082;-59
2022/03/06 06:30:48;;;;;;;19.77;14.93;;;;;;;-4.06;77.91;95596.81;6299297;22;20430;-59
2022/03/06 06:33:13;;;;;;;18.77;16.02;;;;;;;-4.08;79.31;95593.44;6298604;22;20454;-60
2022/03/06 06:35:39;;;;;;;21.13;16.50;;;;;;;-4.09;78.44;95596.91;6299624;22;20007;-60
2022/03/06 06:38:04;;;;;;;42.55;28.30;;;;;;;-4.09;78.17;95593.50;6300222;22;20343;-60
2022/03/06 06:40:30;;;;;;;74.65;47.92;;;;;;;-4.05;77.38;95606.19;6297117;22;20347;-60
2022/03/06 06:42:55;;;;;;;39.30;27.83;;;;;;;-4.01;79.39;95594.03;6299619;22;20343;-60
2022/03/06 06:45:21;;;;;;;64.28;39.92;;;;;;;-3.94;78.52;95604.94;6299658;22;20003;-59
2022/03/06 06:47:46;;;;;;;76.22;49.53;;;;;;;-3.93;77.33;95604.06;6299755;22;20019;-60
2022/03/06 06:50:12;;;;;;;64.30;43.70;;;;;;;-3.94;78.65;95607.53;6299717;22;20007;-60
2022/03/06 06:52:37;;;;;;;64.35;42.97;;;;;;;-3.97;78.21;95608.50;6299603;22;20014;-59
2022/03/06 06:55:04;;;;;;;63.30;40.80;;;;;;;-3.92;78.49;95606.59;6299706;22;20011;-59
2022/03/06 06:57:30;;;;;;;46.47;32.70;;;;;;;-3.91;78.73;95603.13;6299724;22;20007;-60
2022/03/06 06:59:56;;;;;;;36.00;25.15;;;;;;;-3.82;77.53;95607.09;6272471;22;20014;-60
2022/03/06 07:02:22;;;;;;;33.20;24.60;;;;;;;-3.77;77.23;95597.47;6299354;22;20028;-60
2022/03/06 07:04:47;;;;;;;29.85;23.08;;;;;;;-3.65;77.75;95605.59;6299656;22;19999;-60
2022/03/06 07:07:12;;;;;;;31.60;24.27;;;;;;;-3.58;79.37;95601.06;6299644;22;19999;-60
2022/03/06 07:09:38;;;;;;;27.73;22.85;;;;;;;-3.60;78.14;95599.41;6272211;22;20023;-60
2022/03/06 07:12:04;;;;;;;35.38;24.85;;;;;;;-3.58;77.96;95607.06;6298566;22;20003;-59
2022/03/06 07:14:30;;;;;;;36.75;25.30;;;;;;;-3.56;78.49;95600.13;6299530;22;20007;-60
2022/03/06 07:16:55;;;;;;;31.83;23.75;;;;;;;-3.54;78.84;95603.47;6272354;22;20014;-60
2022/03/06 07:19:21;;;;;;;32.13;23.02;;;;;;;-3.53;79.61;95607.72;6299492;22;20007;-60
2022/03/06 07:21:46;;;;;;;28.92;21.65;;;;;;;-3.49;79.19;95604.13;6298633;22;20086;-60
2022/03/06 07:24:11;;;;;;;29.30;23.95;;;;;;;-3.43;78.63;95615.09;6300151;22;20028;-60
2022/03/06 07:26:37;;;;;;;30.45;24.52;;;;;;;-3.35;79.68;95618.22;6299065;22;20430;-59
2022/03/06 07:29:03;;;;;;;27.23;23.55;;;;;;;-3.24;79.36;95615.25;6270704;22;20013;-60
2022/03/06 07:31:28;;;;;;;29.73;22.40;;;;;;;-3.14;76.88;95610.56;6298905;22;20064;-60
2022/03/06 07:33:54;;;;;;;43.90;26.88;;;;;;;-3.06;76.63;95609.38;6299873;22;20338;-61
2022/03/06 07:36:19;;;;;;;71.72;37.78;;;;;;;-3.02;76.06;95607.50;6299396;22;20010;-62
2022/03/06 07:38:44;;;;;;;68.43;32.70;;;;;;;-2.95;76.30;95608.94;6298787;22;20075;-61
2022/03/06 07:41:11;;;;;;;67.07;35.72;;;;;;;-2.85;75.09;95611.13;6272126;22;20007;-61
2022/03/06 07:43:36;;;;;;;62.80;33.20;;;;;;;-2.80;75.84;95611.78;6299038;22;20060;-61
2022/03/06 07:46:02;;;;;;;55.13;30.92;;;;;;;-2.79;76.87;95618.59;6299376;22;20000;-60
2022/03/06 07:48:27;;;;;;;56.13;32.22;;;;;;;-2.81;77.54;95617.84;6299427;22;20007;-60
2022/03/06 07:50:53;;;;;;;42.47;24.85;;;;;;;-2.80;76.97;95615.22;6297771;22;20095;-60
2022/03/06 07:53:18;;;;;;;40.72;25.13;;;;;;;-2.77;76.98;95620.22;6297851;22;20144;-61
2022/03/06 07:55:44;;;;;;;40.72;25.65;;;;;;;-2.72;76.74;95622.63;6297931;22;20431;-60
2022/03/06 07:58:09;;;;;;;34.20;23.92;;;;;;;-2.63;77.00;95622.25;6297542;22;20099;-60
2022/03/06 08:00:35;;;;;;;35.92;22.85;;;;;;;-2.03;75.03;95624.03;6297480;22;20012;-60
2022/03/06 08:03:00;;;;;;;36.78;22.73;;;;;;;-0.97;72.16;95621.88;6297699;22;20431;-60
2022/03/06 08:05:25;;;;;;;41.70;26.58;;;;;;;-0.09;69.12;95629.66;6296857;22;19999;-53
2022/03/06 08:07:51;;;;;;;54.22;35.53;;;;;;;0.51;65.99;95630.88;6271850;22;20038;-54
2022/03/06 08:10:16;;;;;;;84.10;43.88;;;;;;;0.69;65.53;95634.25;6298637;22;20011;-53
2022/03/06 08:12:42;;;;;;;100.38;49.13;;;;;;;0.85;64.67;95623.88;6299248;22;20041;-52
2022/03/06 08:15:08;;;;;;;34.50;24.30;;;;;;;1.18;63.98;95629.03;6298326;22;20430;-54
2022/03/06 08:17:35;;;;;;;37.67;25.63;;;;;;;1.37;61.89;95634.84;6298781;22;20335;-49
2022/03/06 08:20:01;;;;;;;27.48;18.70;;;;;;;1.59;59.81;95631.03;6299117;22;20007;-52
2022/03/06 08:22:27;;;;;;;17.13;14.02;;;;;;;1.71;57.74;95624.31;6298024;22;20010;-55
2022/03/06 08:24:54;;;;;;;18.70;14.43;;;;;;;1.80;58.13;95631.56;6297207;22;20014;-53
2022/03/06 08:27:19;;;;;;;18.23;13.80;;;;;;;1.82;57.25;95626.28;6298658;22;20443;-54
2022/03/06 08:29:45;;;;;;;14.90;12.73;;;;;;;2.01;57.30;95626.03;6297719;22;19999;-55
2022/03/06 08:32:10;;;;;;;15.60;13.10;;;;;;;2.21;56.22;95637.84;6298967;22;20011;-52
2022/03/06 08:34:36;;;;;;;16.90;13.52;;;;;;;2.34;53.23;95627.53;6297655;22;20004;-54
2022/03/06 08:37:01;;;;;;;24.17;16.52;;;;;;;2.66;52.81;95631.69;6298715;22;20343;-49
2022/03/06 08:39:27;;;;;;;20.13;14.55;;;;;;;3.01;52.67;95628.66;6298595;22;19995;-53
2022/03/06 08:41:52;;;;;;;21.27;15.25;;;;;;;3.12;51.73;95620.19;6298462;22;20008;-53
2022/03/06 08:44:18;;;;;;;29.85;18.60;;;;;;;3.52;50.77;95633.19;6298158;22;20443;-53
2022/03/06 08:46:43;;;;;;;18.70;14.07;;;;;;;3.53;50.66;95621.84;6298889;22;20078;-52
2022/03/06 08:49:09;;;;;;;16.92;13.38;;;;;;;3.36;49.02;95622.97;6298743;22;20048;-52
2022/03/06 08:51:35;;;;;;;16.13;13.15;;;;;;;3.51;51.02;95622.91;6298790;22;20060;-53
2022/03/06 08:54:00;;;;;;;22.00;15.85;;;;;;;3.65;48.59;95622.00;6300154;22;20023;-54
2022/03/06 08:56:26;;;;;;;21.75;16.08;;;;;;;3.83;49.42;95617.34;6296083;22;20011;-51
2022/03/06 08:58:51;;;;;;;18.45;13.52;;;;;;;3.79;49.56;95618.47;6300250;22;20003;-51
2022/03/06 09:01:17;;;;;;;21.55;14.52;;;;;;;3.81;47.75;95619.22;6300357;22;20086;-53
2022/03/06 09:03:42;;;;;;;26.92;18.48;;;;;;;3.85;47.45;95626.72;6299893;22;20007;-52
2022/03/06 09:06:07;;;;;;;26.08;18.75;;;;;;;3.79;46.03;95626.28;6300128;22;20014;-51
2022/03/06 09:08:33;;;;;;;19.25;14.82;;;;;;;3.89;47.77;95622.16;6300008;22;20023;-49
2022/03/06 09:10:58;;;;;;;16.67;13.43;;;;;;;3.98;46.29;95620.72;6300054;22;20015;-51
2022/03/06 09:13:24;;;;;;;22.80;16.15;;;;;;;4.06;45.51;95625.38;6300372;22;20004;-52
2022/03/06 09:15:49;;;;;;;21.50;15.27;;;;;;;4.26;46.32;95619.66;6300390;22;20008;-51
2022/03/06 09:18:15;;;;;;;16.65;14.50;;;;;;;4.55;44.77;95615.97;6300526;22;20432;-51
2022/03/06 09:20:40;;;;;;;22.02;16.98;;;;;;;4.69;45.42;95615.00;6300602;22;20003;-53
2022/03/06 09:23:07;;;;;;;19.15;14.38;;;;;;;4.66;44.44;95607.41;6300949;22;20091;-52
2022/03/06 09:25:33;;;;;;;27.77;18.45;;;;;;;4.89;44.51;95616.22;6300399;22;20037;-53
2022/03/06 09:28:00;;;;;;;17.85;14.48;;;;;;;5.21;42.66;95615.69;6300334;22;20003;-51
2022/03/06 09:30:26;;;;;;;18.40;14.93;;;;;;;5.43;42.87;95607.16;6300787;22;20011;-53
2022/03/06 09:32:51;;;;;;;17.00;14.65;;;;;;;5.40;42.29;95601.31;6300822;22;20011;-53
2022/03/06 09:35:17;;;;;;;16.83;14.93;;;;;;;5.47;41.80;95607.75;6300489;22;20003;-54
2022/03/06 09:37:43;;;;;;;14.57;12.80;;;;;;;5.56;42.08;95608.84;6300573;22;20004;-53
2022/03/06 09:40:09;;;;;;;16.98;14.40;;;;;;;5.84;39.98;95604.19;6300364;22;20443;-53
2022/03/06 09:42:35;;;;;;;16.88;15.15;;;;;;;5.87;40.11;95603.97;6272944;22;20007;-53
2022/03/06 09:45:08;;;;;;;19.35;14.90;;;;;;;5.90;39.93;95611.56;6300741;22;20014;-54
2022/03/06 09:47:35;;;;;;;19.05;14.57;;;;;;;6.18;39.91;95603.44;6300818;22;20042;-54
2022/03/06 09:50:02;;;;;;;16.58;14.82;;;;;;;6.66;39.11;95591.94;6300567;22;20486;-53
2022/03/06 09:52:28;;;;;;;20.27;14.23;;;;;;;7.02;38.25;95592.59;6300136;22;20010;-53
2022/03/06 09:54:54;;;;;;;18.48;15.82;;;;;;;7.30;37.12;95593.00;6300341;22;19999;-54
2022/03/06 09:57:20;;;;;;;21.08;16.25;;;;;;;7.62;36.40;95597.38;6300573;22;20467;-54
2022/03/06 09:59:46;;;;;;;18.60;14.43;;;;;;;7.89;34.41;95589.03;6300487;22;20003;-53
2022/03/06 10:02:12;;;;;;;16.73;15.02;;;;;;;7.88;34.99;95590.00;6299739;22;20011;-52
2022/03/06 10:04:38;;;;;;;16.85;14.70;;;;;;;8.25;33.40;95593.94;6300206;22;20060;-50
2022/03/06 10:07:06;;;;;;;18.17;14.25;;;;;;;8.51;34.01;95585.69;6300567;22;20003;-52
2022/03/06 10:09:33;;;;;;;16.90;13.77;;;;;;;8.63;33.03;95589.06;6299930;22;20074;-54
2022/03/06 10:11:59;;;;;;;18.23;15.43;;;;;;;8.65;33.03;95594.16;6300607;22;20003;-53
2022/03/06 10:14:40;;;;;;;20.70;16.17;;;;;;;8.82;32.80;95596.16;6300278;22;19999;-54
2022/03/06 10:17:08;;;;;;;20.63;14.43;;;;;;;9.03;33.79;95595.25;6300323;22;20010;-52
2022/03/06 10:19:50;;;;;;;16.92;15.13;;;;;;;9.25;33.27;95599.44;6300300;22;20479;-49
2022/03/06 10:22:17;;;;;;;16.80;15.10;;;;;;;8.87;32.33;95598.41;6300878;22;20035;-50
2022/03/06 10:24:49;;;;;;;18.17;15.43;;;;;;;8.50;33.65;95598.94;6300198;22;20120;-52
2022/03/06 10:27:15;;;;;;;19.17;15.18;;;;;;;9.28;33.00;95604.44;6300309;22;20006;-54
2022/03/06 10:29:41;;;;;;;17.33;15.52;;;;;;;9.17;32.45;95608.00;6300498;22;20003;-53
2022/03/06 10:32:07;;;;;;;16.83;15.02;;;;;;;9.12;33.07;95606.75;6300224;22;20010;-53
2022/03/06 10:34:40;;;;;;;21.42;15.93;;;;;;;9.17;33.45;95612.41;6300169;22;20338;-53
2022/03/06 10:37:06;;;;;;;17.20;14.95;;;;;;;9.40;31.96;95602.50;6300385;22;20012;-54
2022/03/06 10:39:46;;;;;;;17.52;15.23;;;;;;;9.53;32.74;95604.03;6300201;22;20010;-54
2022/03/06 10:42:19;;;;;;;16.52;14.82;;;;;;;9.72;32.49;95606.66;6300331;22;20007;-52
2022/03/06 10:44:47;;;;;;;17.23;15.43;;;;;;;9.70;31.83;95602.50;6300019;22;20010;-53
2022/03/06 10:47:12;;;;;;;17.67;15.52;;;;;;;10.07;31.60;95604.41;6300158;22;20343;-53
2022/03/06 10:49:38;;;;;;;16.98;14.63;;;;;;;9.99;31.44;95594.59;6299944;22;19999;-52
2022/03/06 10:52:20;;;;;;;16.60;14.95;;;;;;;10.58;31.92;95598.91;6300466;22;20003;-51
2022/03/06 10:54:50;;;;;;;18.23;14.60;;;;;;;10.72;30.61;95592.34;6300414;22;20034;-53
2022/03/06 10:57:16;;;;;;;16.70;15.00;;;;;;;11.38;30.15;95594.91;6272615;22;20459;-55
2022/03/06 10:59:42;;;;;;;16.27;14.68;;;;;;;11.52;29.03;95591.75;6300247;22;20015;-54
2022/03/06 11:02:09;;;;;;;16.08;14.45;;;;;;;11.32;29.34;95583.13;6300615;22;20063;-54
2022/03/06 11:04:37;;;;;;;17.05;15.25;;;;;;;11.87;29.17;95584.78;6300014;22;20010;-54
2022/03/06 11:07:03;;;;;;;16.65;14.35;;;;;;;11.99;27.84;95589.84;6300377;22;20010;-53
2022/03/06 11:09:29;;;;;;;20.30;14.80;;;;;;;12.00;28.93;95586.22;6294958;22;20125;-52
2022/03/06 11:11:55;;;;;;;16.13;14.52;;;;;;;12.38;28.16;95578.94;6272650;22;20011;-52
2022/03/06 11:14:20;;;;;;;16.67;14.20;;;;;;;12.14;28.37;95582.22;6299965;22;20041;-54